Time;durP1;ratioP1;P1;durP2;ratioP2;P2;SDS_P1;SDS_P2;PMS_P1;PMS_P2;Temp;Humidity;BMP_temperature;BMP_pressure;BME280_temperature;BME280_humidity;BME280_pressure;Samples;Min_cycle;Max_cycle;Signal;HPM_P1;HPM_P2
2020/12/25 00:01:24;;;;;;;2.05;0.50;;;5.70;71.10;;;;;;5021647;28;20033;-76
2020/12/25 00:03:49;;;;;;;0.52;0.30;;;5.60;71.10;;;;;;5020718;28;20032;-75
2020/12/25 00:06:15;;;;;;;3.58;0.98;;;5.70;71.20;;;;;;5046226;28;20033;-76
2020/12/25 00:08:41;;;;;;;1.05;0.60;;;5.60;71.10;;;;;;5047815;28;20451;-77
2020/12/25 00:11:06;;;;;;;2.60;0.65;;;5.60;71.10;;;;;;5048308;28;20526;-76
2020/12/25 00:13:32;;;;;;;0.98;0.43;;;5.60;71.10;;;;;;5048160;28;20043;-74
2020/12/25 00:15:57;;;;;;;0.40;0.38;;;5.60;71.10;;;;;;5045579;28;20033;-76
2020/12/25 00:18:23;;;;;;;0.82;0.40;;;5.50;71.00;;;;;;5037069;28;20458;-76
2020/12/25 00:20:50;;;;;;;0.80;0.50;;;5.60;71.10;;;;;;5037822;28;20160;-74
2020/12/25 00:23:15;;;;;;;0.65;0.40;;;5.60;71.10;;;;;;5041454;28;20033;-76
2020/12/25 00:25:41;;;;;;;1.15;0.65;;;5.60;71.10;;;;;;5038444;28;20747;-75
2020/12/25 00:28:07;;;;;;;1.23;0.50;;;5.50;71.00;;;;;;5038842;28;20064;-76
2020/12/25 00:30:32;;;;;;;1.08;0.50;;;5.50;70.90;;;;;;5041766;28;20037;-77
2020/12/25 00:32:57;;;;;;;0.57;0.32;;;5.50;70.90;;;;;;5038637;28;20084;-75
2020/12/25 00:35:23;;;;;;;2.60;0.43;;;5.50;70.90;;;;;;5040028;28;20033;-75
2020/12/25 00:37:48;;;;;;;1.38;0.40;;;5.40;70.90;;;;;;5040659;28;20029;-77
2020/12/25 00:40:14;;;;;;;0.65;0.30;;;5.40;71.00;;;;;;5039887;28;20042;-74
2020/12/25 00:42:39;;;;;;;0.38;0.30;;;5.40;71.00;;;;;;5038053;28;20045;-77
2020/12/25 00:45:05;;;;;;;0.77;0.35;;;5.40;71.00;;;;;;5038319;28;20218;-76
2020/12/25 00:47:30;;;;;;;1.95;1.33;;;5.40;70.90;;;;;;5041464;28;20175;-74
2020/12/25 00:49:56;;;;;;;2.58;1.25;;;5.40;70.90;;;;;;5027768;28;20057;-76
2020/12/25 00:52:24;;;;;;;0.47;0.35;;;5.30;70.70;;;;;;5041216;28;20121;-76
2020/12/25 00:54:50;;;;;;;1.02;0.63;;;5.30;70.60;;;;;;5038522;28;20059;-75
2020/12/25 00:57:15;;;;;;;0.35;0.30;;;5.20;70.50;;;;;;5038971;28;20451;-75
2020/12/25 00:59:41;;;;;;;2.53;0.60;;;5.20;70.50;;;;;;5041300;28;20037;-75
2020/12/25 01:02:06;;;;;;;0.50;0.40;;;5.10;71.00;;;;;;5040728;28;20034;-76
2020/12/25 01:04:32;;;;;;;0.95;0.40;;;5.10;70.50;;;;;;5041563;28;20036;-75
2020/12/25 01:06:57;;;;;;;0.70;0.30;;;5.00;70.50;;;;;;5039080;28;20080;-73
2020/12/25 01:09:24;;;;;;;0.95;0.40;;;5.00;70.40;;;;;;5042081;28;20029;-76
2020/12/25 01:11:50;;;;;;;0.45;0.30;;;4.90;70.40;;;;;;5038908;28;20095;-76
2020/12/25 01:14:16;;;;;;;0.73;0.40;;;4.90;70.30;;;;;;5039226;28;20029;-76
2020/12/25 01:16:41;;;;;;;2.15;0.77;;;4.90;70.30;;;;;;5040168;28;20099;-75
2020/12/25 01:19:07;;;;;;;1.83;0.65;;;4.80;70.30;;;;;;5039436;28;20090;-76
2020/12/25 01:21:32;;;;;;;0.52;0.40;;;4.90;70.60;;;;;;5040046;28;20083;-75
2020/12/25 01:23:58;;;;;;;0.30;0.30;;;4.80;70.40;;;;;;5039746;28;20510;-75
2020/12/25 01:26:23;;;;;;;0.90;0.50;;;4.70;70.30;;;;;;5046362;28;20025;-74
2020/12/25 01:28:49;;;;;;;0.38;0.30;;;4.70;70.80;;;;;;5039203;28;20124;-75
2020/12/25 01:31:14;;;;;;;0.30;0.20;;;4.60;70.10;;;;;;5042462;28;20495;-76
2020/12/25 01:33:40;;;;;;;0.82;0.22;;;4.60;70.10;;;;;;5047224;28;20041;-78
2020/12/25 01:36:05;;;;;;;0.57;0.50;;;4.60;70.00;;;;;;5047582;28;20408;-74
2020/12/25 01:38:32;;;;;;;1.30;0.35;;;4.50;70.00;;;;;;5047649;28;20107;-76
2020/12/25 01:40:57;;;;;;;1.20;0.40;;;4.50;70.00;;;;;;5040815;28;20099;-74
2020/12/25 01:43:24;;;;;;;1.10;0.32;;;4.50;70.00;;;;;;5041196;28;20085;-76
2020/12/25 01:45:49;;;;;;;0.98;0.45;;;4.40;70.10;;;;;;5049990;28;20040;-76
2020/12/25 01:48:15;;;;;;;0.60;0.30;;;4.40;70.30;;;;;;5052105;28;20044;-75
2020/12/25 01:50:41;;;;;;;0.80;0.30;;;4.30;70.10;;;;;;5047963;28;20040;-76
2020/12/25 01:53:08;;;;;;;2.75;0.60;;;4.30;70.20;;;;;;5047224;28;20063;-76
2020/12/25 01:55:35;;;;;;;1.90;0.70;;;4.30;70.20;;;;;;5052929;28;20040;-76
2020/12/25 01:58:01;;;;;;;1.67;0.50;;;4.30;70.90;;;;;;5046890;28;20025;-77
2020/12/25 02:00:29;;;;;;;2.05;0.65;;;4.20;70.50;;;;;;5047745;28;20044;-75
2020/12/25 02:02:54;;;;;;;1.23;0.63;;;4.10;70.60;;;;;;5045971;28;20480;-76
2020/12/25 02:05:21;;;;;;;0.82;0.40;;;4.20;70.80;;;;;;5048334;28;20111;-77
2020/12/25 02:07:46;;;;;;;0.70;0.40;;;4.20;70.90;;;;;;5052099;28;20048;-77
2020/12/25 02:10:12;;;;;;;1.17;0.55;;;4.10;70.80;;;;;;5047041;28;20029;-76
2020/12/25 02:12:38;;;;;;;1.02;0.50;;;4.10;70.60;;;;;;5042548;28;20033;-76
2020/12/25 02:15:06;;;;;;;4.03;0.80;;;4.10;70.50;;;;;;5043249;28;20049;-76
2020/12/25 02:17:31;;;;;;;0.82;0.35;;;4.10;70.40;;;;;;5023745;28;20021;-75
2020/12/25 02:19:57;;;;;;;0.38;0.32;;;4.10;70.30;;;;;;5044668;28;20047;-77
2020/12/25 02:22:22;;;;;;;1.13;0.30;;;4.10;70.40;;;;;;5044071;28;20025;-73
2020/12/25 02:24:48;;;;;;;0.60;0.40;;;4.00;70.40;;;;;;5043891;28;20013;-76
2020/12/25 02:27:14;;;;;;;0.40;0.40;;;4.00;70.40;;;;;;5040828;28;20519;-77
2020/12/25 02:29:39;;;;;;;0.73;0.47;;;3.90;70.40;;;;;;5042784;28;20033;-76
2020/12/25 02:32:04;;;;;;;1.75;0.40;;;3.90;70.50;;;;;;5049089;28;20033;-76
2020/12/25 02:34:30;;;;;;;0.60;0.32;;;3.90;70.60;;;;;;5048573;28;20030;-77
2020/12/25 02:36:55;;;;;;;1.15;0.30;;;3.80;70.60;;;;;;5034423;28;20492;-76
2020/12/25 02:39:21;;;;;;;0.65;0.45;;;3.80;70.60;;;;;;5044573;28;20057;-77
2020/12/25 02:41:46;;;;;;;0.60;0.30;;;3.80;70.70;;;;;;5043807;28;20411;-76
2020/12/25 02:44:12;;;;;;;3.33;0.93;;;3.80;70.80;;;;;;5039384;28;20018;-76
2020/12/25 02:46:37;;;;;;;1.67;0.50;;;3.80;70.80;;;;;;5038623;28;20033;-76
2020/12/25 02:49:03;;;;;;;0.98;0.35;;;3.80;70.90;;;;;;5043895;28;20172;-77
2020/12/25 02:51:29;;;;;;;2.15;0.43;;;3.80;71.00;;;;;;5042964;28;20034;-75
2020/12/25 02:53:54;;;;;;;1.63;0.38;;;3.80;71.10;;;;;;5043143;28;20039;-76
2020/12/25 02:56:20;;;;;;;0.55;0.35;;;3.80;71.10;;;;;;5042894;28;20060;-76
2020/12/25 02:58:46;;;;;;;1.05;0.52;;;3.80;71.10;;;;;;5042892;28;20380;-77
2020/12/25 03:01:13;;;;;;;0.93;0.43;;;3.80;71.00;;;;;;5040332;28;20064;-79
2020/12/25 03:03:39;;;;;;;0.63;0.40;;;3.80;70.90;;;;;;5047548;28;20025;-77
2020/12/25 03:06:05;;;;;;;1.42;0.45;;;3.70;70.80;;;;;;5046313;28;20109;-77
2020/12/25 03:08:32;;;;;;;0.95;0.50;;;3.70;70.80;;;;;;5046836;28;20036;-77
2020/12/25 03:10:57;;;;;;;0.75;0.52;;;3.70;70.70;;;;;;5047813;28;20029;-77
2020/12/25 03:13:23;;;;;;;0.95;0.45;;;3.70;70.50;;;;;;5045924;28;20492;-77
2020/12/25 03:15:48;;;;;;;0.80;0.40;;;3.70;70.40;;;;;;5047759;28;20029;-77
2020/12/25 03:18:14;;;;;;;0.88;0.50;;;3.70;70.30;;;;;;5044048;28;20527;-76
2020/12/25 03:20:39;;;;;;;0.70;0.22;;;3.70;70.10;;;;;;5047267;28;20154;-76
2020/12/25 03:23:05;;;;;;;2.33;0.60;;;3.50;69.90;;;;;;5042721;28;20381;-77
2020/12/25 03:25:30;;;;;;;1.08;0.40;;;3.60;69.90;;;;;;5042829;28;20327;-76
2020/12/25 03:27:56;;;;;;;1.88;0.38;;;3.50;69.90;;;;;;5042941;28;20120;-76
2020/12/25 03:30:22;;;;;;;1.00;0.50;;;3.40;69.80;;;;;;5046108;28;20044;-77
2020/12/25 03:32:47;;;;;;;1.05;0.40;;;3.40;69.90;;;;;;5043283;28;20021;-78
2020/12/25 03:35:13;;;;;;;0.47;0.38;;;3.40;69.90;;;;;;5024046;28;20037;-76
2020/12/25 03:37:38;;;;;;;0.60;0.30;;;3.30;69.80;;;;;;5042212;28;20061;-77
2020/12/25 03:40:05;;;;;;;2.38;0.43;;;3.30;69.80;;;;;;5040192;28;20029;-76
2020/12/25 03:42:30;;;;;;;0.38;0.30;;;3.20;69.80;;;;;;5039787;28;20088;-78
2020/12/25 03:44:56;;;;;;;0.55;0.35;;;3.10;69.70;;;;;;5041251;28;20040;-76
2020/12/25 03:47:25;;;;;;;0.55;0.30;;;3.10;69.80;;;;;;5046104;23;20077;-79
2020/12/25 03:49:52;;;;;;;1.30;0.50;;;3.10;69.80;;;;;;5016213;28;20046;-80
2020/12/25 03:52:18;;;;;;;1.48;0.30;;;3.00;69.90;;;;;;5011840;28;20030;-81
2020/12/25 03:54:44;;;;;;;1.38;0.30;;;3.00;70.20;;;;;;5010113;28;20034;-81
2020/12/25 03:57:09;;;;;;;0.40;0.30;;;3.00;70.50;;;;;;5019549;28;20106;-80
2020/12/25 03:59:35;;;;;;;1.20;0.20;;;3.00;70.80;;;;;;5033397;28;20044;-80
2020/12/25 04:02:00;;;;;;;0.80;0.52;;;3.00;71.10;;;;;;5030457;28;20056;-80
2020/12/25 04:04:26;;;;;;;0.73;0.55;;;3.00;71.30;;;;;;5038118;28;20065;-80
2020/12/25 04:06:51;;;;;;;2.20;0.40;;;3.10;71.50;;;;;;5038117;28;20053;-80
2020/12/25 04:09:17;;;;;;;1.23;0.50;;;3.10;71.60;;;;;;5033542;28;20041;-81
2020/12/25 04:11:42;;;;;;;0.63;0.30;;;3.10;71.70;;;;;;5032530;28;20385;-81
2020/12/25 04:14:08;;;;;;;1.40;1.02;;;3.10;71.70;;;;;;5037191;28;20025;-80
2020/12/25 04:16:33;;;;;;;2.13;0.40;;;3.30;71.80;;;;;;5026955;28;20045;-78
2020/12/25 04:18:58;;;;;;;0.40;0.20;;;3.30;71.80;;;;;;5027763;28;20029;-79
2020/12/25 04:21:24;;;;;;;0.22;0.20;;;3.30;71.80;;;;;;5027895;28;20037;-81
2020/12/25 04:23:51;;;;;;;0.75;0.30;;;3.40;71.80;;;;;;5029136;28;20105;-79
2020/12/25 04:26:17;;;;;;;0.50;0.20;;;3.50;71.80;;;;;;5026545;28;20037;-78
2020/12/25 04:28:42;;;;;;;1.58;0.30;;;3.50;71.60;;;;;;5020572;28;20607;-79
2020/12/25 04:31:08;;;;;;;0.80;0.28;;;3.50;71.40;;;;;;5020511;28;20040;-79
2020/12/25 04:33:33;;;;;;;0.47;0.35;;;3.50;71.30;;;;;;5027210;28;20029;-78
2020/12/25 04:35:59;;;;;;;1.50;0.30;;;3.50;71.10;;;;;;5027322;28;20499;-79
2020/12/25 04:38:25;;;;;;;0.80;0.30;;;3.50;70.90;;;;;;5030109;28;20064;-79
2020/12/25 04:40:51;;;;;;;1.38;0.28;;;3.40;70.70;;;;;;5024007;28;20573;-77
2020/12/25 04:43:18;;;;;;;0.85;0.20;;;3.40;70.60;;;;;;5026120;28;20026;-78
2020/12/25 04:45:43;;;;;;;0.90;0.50;;;3.40;70.60;;;;;;5023688;28;20034;-78
2020/12/25 04:48:10;;;;;;;0.45;0.28;;;3.50;70.60;;;;;;5024266;28;20106;-79
2020/12/25 04:50:36;;;;;;;1.40;0.40;;;3.50;70.70;;;;;;5019817;28;20033;-79
2020/12/25 04:53:02;;;;;;;0.95;0.30;;;3.30;70.60;;;;;;5019018;28;20396;-79
2020/12/25 04:55:27;;;;;;;1.40;0.43;;;3.40;70.70;;;;;;5021340;28;20087;-79
2020/12/25 04:57:54;;;;;;;1.05;0.20;;;3.40;70.70;;;;;;5023853;28;20080;-80
2020/12/25 05:00:21;;;;;;;2.88;0.38;;;3.30;70.70;;;;;;5026965;28;20065;-79
2020/12/25 05:02:50;;;;;;;0.35;0.30;;;3.30;70.60;;;;;;5025167;28;20512;-78
2020/12/25 05:05:17;;;;;;;0.43;0.20;;;3.30;70.50;;;;;;5019201;28;20128;-79
2020/12/25 05:07:45;;;;;;;1.02;0.22;;;3.20;70.40;;;;;;5026144;28;20448;-78
2020/12/25 05:10:11;;;;;;;1.00;0.40;;;3.30;70.50;;;;;;5025793;28;20033;-79
2020/12/25 05:12:36;;;;;;;0.35;0.20;;;3.20;70.40;;;;;;5026516;28;20033;-79
2020/12/25 05:15:07;;;;;;;0.57;0.25;;;3.20;70.50;;;;;;5024336;28;20116;-79
2020/12/25 05:17:33;;;;;;;;;;;3.20;70.60;;;;;;5025602;28;20025;-79
2020/12/25 05:20:00;;;;;;;1.90;0.28;;;3.10;70.60;;;;;;5025290;28;19909;-79
2020/12/25 05:22:26;;;;;;;0.20;0.20;;;3.20;70.50;;;;;;5027528;28;20032;-78
2020/12/25 05:24:51;;;;;;;0.38;0.30;;;3.20;70.60;;;;;;5025851;28;20026;-79
2020/12/25 05:27:17;;;;;;;0.50;0.30;;;3.10;70.70;;;;;;5030123;28;20025;-79
2020/12/25 05:29:43;;;;;;;0.65;0.40;;;3.10;70.70;;;;;;5029966;28;20036;-79
2020/12/25 05:32:08;;;;;;;0.25;0.20;;;3.10;70.70;;;;;;5029895;28;20053;-79
2020/12/25 05:34:36;;;;;;;0.20;0.20;;;3.10;70.80;;;;;;5028286;28;20044;-79
2020/12/25 05:37:05;;;;;;;1.88;0.32;;;3.10;70.90;;;;;;5026520;28;20490;-78
2020/12/25 05:39:35;;;;;;;0.40;0.20;;;3.10;71.10;;;;;;5028375;28;20034;-79
2020/12/25 05:42:10;;;;;;;1.45;0.60;;;3.20;71.30;;;;;;5030625;28;20136;-79
2020/12/25 05:44:46;;;;;;;1.92;0.43;;;3.10;71.50;;;;;;5025863;28;20048;-79
2020/12/25 05:47:16;;;;;;;1.42;0.65;;;3.20;71.70;;;;;;5029540;28;20041;-77
2020/12/25 05:49:42;;;;;;;1.33;0.60;;;3.20;71.70;;;;;;4997438;28;20030;-79
2020/12/25 05:52:07;;;;;;;0.98;0.50;;;3.30;71.70;;;;;;5030056;28;20034;-79
2020/12/25 05:54:35;;;;;;;0.50;0.30;;;3.30;71.70;;;;;;5028666;28;20051;-77
2020/12/25 05:57:01;;;;;;;0.70;0.60;;;3.30;71.60;;;;;;5029893;28;20033;-78
2020/12/25 05:59:28;;;;;;;0.47;0.20;;;3.30;71.50;;;;;;5026157;28;20037;-78
2020/12/25 06:01:56;;;;;;;0.95;0.43;;;3.40;71.40;;;;;;5028892;28;20033;-78
2020/12/25 06:04:23;;;;;;;0.77;0.57;;;3.40;71.20;;;;;;5027801;28;20036;-78
2020/12/25 06:06:49;;;;;;;1.27;0.30;;;3.40;71.00;;;;;;5029203;28;20121;-78
2020/12/25 06:09:17;;;;;;;0.80;0.25;;;3.40;70.90;;;;;;5030131;28;20061;-78
2020/12/25 06:11:48;;;;;;;0.82;0.38;;;3.40;70.80;;;;;;5026137;28;20034;-79
2020/12/25 06:14:14;;;;;;;0.43;0.35;;;3.40;70.60;;;;;;5003767;28;20116;-79
2020/12/25 06:16:44;;;;;;;0.45;0.30;;;3.30;70.40;;;;;;5026693;28;24971;-79
2020/12/25 06:19:33;;;;;;;0.60;0.40;;;3.30;70.30;;;;;;5026498;28;20022;-79
2020/12/25 06:22:00;;;;;;;1.77;0.30;;;3.30;70.00;;;;;;5023410;28;20033;-79
2020/12/25 06:24:31;;;;;;;0.60;0.30;;;3.30;69.90;;;;;;5027184;28;20037;-78
2020/12/25 06:27:01;;;;;;;0.50;0.20;;;3.20;69.80;;;;;;5025547;28;20087;-79
2020/12/25 06:29:27;;;;;;;0.20;0.20;;;3.10;69.70;;;;;;5025310;28;20120;-78
2020/12/25 06:31:55;;;;;;;1.33;0.40;;;3.10;69.70;;;;;;5027430;28;20033;-78
2020/12/25 06:34:21;;;;;;;1.25;0.20;;;3.00;69.70;;;;;;5027331;28;20030;-79
2020/12/25 06:36:47;;;;;;;0.68;0.35;;;3.00;69.70;;;;;;5002018;28;20053;-81
2020/12/25 06:39:15;;;;;;;0.40;0.30;;;2.90;69.90;;;;;;5022038;28;20496;-79
2020/12/25 06:41:41;;;;;;;0.22;0.15;;;2.90;69.50;;;;;;5027319;28;20056;-79
2020/12/25 06:44:15;;;;;;;0.82;0.40;;;2.80;69.40;;;;;;5029022;28;20449;-79
2020/12/25 06:47:04;;;;;;;1.25;0.47;;;2.70;69.30;;;;;;5027333;28;20404;-79
2020/12/25 06:49:36;;;;;;;0.82;0.30;;;2.70;69.40;;;;;;5015880;28;20033;-77
2020/12/25 06:52:02;;;;;;;0.70;0.30;;;2.60;69.70;;;;;;5028752;28;20048;-79
2020/12/25 06:54:37;;;;;;;2.10;0.40;;;2.50;69.90;;;;;;5027136;28;20112;-78
2020/12/25 06:57:04;;;;;;;1.05;0.30;;;2.50;70.10;;;;;;5027767;28;20040;-78
2020/12/25 06:59:29;;;;;;;0.50;0.38;;;2.60;70.40;;;;;;5026384;28;20033;-79
2020/12/25 07:01:56;;;;;;;0.40;0.30;;;2.50;70.40;;;;;;5030044;28;20029;-77
2020/12/25 07:04:29;;;;;;;1.17;0.63;;;2.50;70.50;;;;;;5026716;28;20034;-78
2020/12/25 07:07:05;;;;;;;1.48;0.93;;;2.40;70.50;;;;;;5024320;28;20032;-78
2020/12/25 07:09:49;;;;;;;2.65;1.05;;;2.50;70.60;;;;;;5024979;28;20033;-78
2020/12/25 07:12:24;;;;;;;1.30;0.65;;;2.50;70.50;;;;;;5019878;28;20496;-78
2020/12/25 07:14:50;;;;;;;2.17;0.60;;;2.50;70.50;;;;;;5026248;28;20030;-77
2020/12/25 07:17:18;;;;;;;0.65;0.30;;;2.40;70.30;;;;;;5026471;28;20447;-78
2020/12/25 07:19:44;;;;;;;0.55;0.20;;;2.50;70.40;;;;;;5025059;28;20061;-78
2020/12/25 07:22:10;;;;;;;1.60;0.28;;;2.40;70.40;;;;;;5025602;28;20060;-79
2020/12/25 07:24:39;;;;;;;1.02;0.45;;;2.40;70.50;;;;;;5025029;28;20562;-78
2020/12/25 07:27:09;;;;;;;0.40;0.33;;;2.40;70.60;;;;;;5027699;28;20029;-79
2020/12/25 07:29:36;;;;;;;1.30;0.40;;;2.40;70.80;;;;;;5022889;28;20052;-78
2020/12/25 07:32:02;;;;;;;1.02;0.60;;;2.40;70.90;;;;;;5025975;28;20030;-79
2020/12/25 07:34:27;;;;;;;2.03;0.63;;;2.40;70.90;;;;;;5007199;28;20444;-77
2020/12/25 07:36:55;;;;;;;0.95;0.57;;;2.40;70.80;;;;;;5023317;28;20038;-79
2020/12/25 07:39:22;;;;;;;2.78;0.70;;;2.40;70.80;;;;;;5026901;28;20055;-77
2020/12/25 07:41:48;;;;;;;0.55;0.40;;;2.50;70.70;;;;;;5029401;28;20043;-78
2020/12/25 07:44:14;;;;;;;1.63;0.50;;;2.40;70.50;;;;;;5025396;28;20404;-78
2020/12/25 07:46:40;;;;;;;1.45;0.70;;;2.50;70.40;;;;;;5021617;28;20668;-78
2020/12/25 07:49:07;;;;;;;0.70;0.60;;;2.40;70.20;;;;;;5028965;28;20061;-79
2020/12/25 07:51:33;;;;;;;1.13;0.75;;;2.40;70.30;;;;;;5028760;28;20034;-79
2020/12/25 07:54:00;;;;;;;1.42;1.00;;;2.40;70.50;;;;;;5029849;28;20029;-76
2020/12/25 07:56:28;;;;;;;1.67;1.00;;;2.50;70.70;;;;;;5026170;28;20040;-77
2020/12/25 07:58:54;;;;;;;2.42;0.85;;;2.50;70.70;;;;;;5023490;28;20396;-78
2020/12/25 08:01:24;;;;;;;1.30;0.80;;;2.40;70.70;;;;;;5029333;28;20033;-78
2020/12/25 08:03:51;;;;;;;1.60;1.17;;;2.40;70.70;;;;;;5024080;28;20102;-78
2020/12/25 08:06:20;;;;;;;1.58;0.90;;;2.40;70.80;;;;;;5025119;28;20503;-78
2020/12/25 08:08:52;;;;;;;1.20;0.73;;;2.40;70.80;;;;;;5031665;28;20499;-78
2020/12/25 08:11:19;;;;;;;2.13;1.10;;;2.40;70.80;;;;;;5021842;28;20124;-79
2020/12/25 08:13:49;;;;;;;1.85;0.93;;;2.50;70.80;;;;;;5028339;28;20057;-78
2020/12/25 08:16:15;;;;;;;2.77;1.40;;;2.50;70.80;;;;;;5024123;28;20033;-78
2020/12/25 08:18:41;;;;;;;1.58;0.88;;;2.50;70.70;;;;;;5029329;28;20033;-78
2020/12/25 08:21:06;;;;;;;3.42;1.00;;;2.50;70.80;;;;;;5028398;28;20037;-78
2020/12/25 08:23:33;;;;;;;2.50;1.27;;;2.40;70.70;;;;;;5006394;28;20109;-77
2020/12/25 08:25:59;;;;;;;2.75;1.30;;;2.50;70.90;;;;;;5019475;28;20425;-78
2020/12/25 08:28:24;;;;;;;2.08;1.10;;;2.50;70.90;;;;;;5028940;28;20064;-78
2020/12/25 08:30:50;;;;;;;2.05;0.88;;;2.50;70.90;;;;;;5019330;28;20026;-77
2020/12/25 08:33:23;;;;;;;1.67;0.98;;;2.50;70.80;;;;;;5019503;28;20420;-78
2020/12/25 08:35:49;;;;;;;2.10;0.85;;;2.50;70.80;;;;;;5024882;28;20042;-78
2020/12/25 08:38:17;;;;;;;1.77;1.17;;;2.50;70.80;;;;;;5024750;28;20121;-78
2020/12/25 08:40:45;;;;;;;3.63;1.10;;;2.50;70.90;;;;;;5024096;28;20496;-80
2020/12/25 08:43:17;;;;;;;1.25;0.80;;;2.50;71.00;;;;;;5019928;28;20025;-77
2020/12/25 08:45:59;;;;;;;0.93;0.75;;;2.50;71.10;;;;;;5022285;28;20117;-78
2020/12/25 08:48:25;;;;;;;1.05;0.60;;;2.60;71.30;;;;;;5018132;28;20458;-76
2020/12/25 08:50:51;;;;;;;1.27;0.75;;;2.60;71.30;;;;;;5023042;28;20047;-78
2020/12/25 08:53:21;;;;;;;1.13;0.50;;;2.60;71.30;;;;;;5021968;28;20029;-78
2020/12/25 08:55:54;;;;;;;0.70;0.45;;;2.70;71.40;;;;;;5025730;28;20073;-78
2020/12/25 08:58:22;;;;;;;2.13;0.70;;;2.70;71.40;;;;;;5016577;28;20033;-77
2020/12/25 09:00:58;;;;;;;1.15;0.60;;;2.70;71.50;;;;;;5019457;28;20030;-78
2020/12/25 09:03:24;;;;;;;1.63;0.80;;;2.80;71.80;;;;;;5024247;28;20036;-78
2020/12/25 09:05:49;;;;;;;3.25;0.90;;;2.90;72.00;;;;;;5024413;28;20113;-79
2020/12/25 09:08:15;;;;;;;2.05;0.60;;;2.90;72.20;;;;;;5022085;28;20403;-77
2020/12/25 09:10:41;;;;;;;1.25;0.73;;;3.00;72.30;;;;;;5021169;28;20073;-76
2020/12/25 09:13:06;;;;;;;1.25;0.73;;;3.00;72.40;;;;;;5021174;28;20018;-77
2020/12/25 09:15:32;;;;;;;1.20;0.70;;;3.00;72.40;;;;;;5021496;28;20505;-78
2020/12/25 09:17:57;;;;;;;2.05;0.63;;;3.20;72.60;;;;;;5019756;28;20137;-78
2020/12/25 09:20:23;;;;;;;1.17;0.70;;;3.20;72.60;;;;;;5025688;28;20037;-78
2020/12/25 09:22:49;;;;;;;1.45;0.70;;;3.30;72.60;;;;;;5021627;28;20038;-78
2020/12/25 09:25:14;;;;;;;2.70;0.65;;;3.30;72.70;;;;;;5023409;28;20038;-78
2020/12/25 09:27:39;;;;;;;1.40;0.80;;;3.40;72.80;;;;;;5027219;28;20034;-78
2020/12/25 09:30:05;;;;;;;1.75;1.10;;;3.60;72.90;;;;;;5025807;28;20033;-78
2020/12/25 09:32:30;;;;;;;2.85;0.95;;;3.60;72.80;;;;;;5031398;28;20033;-78
2020/12/25 09:34:56;;;;;;;2.10;0.90;;;3.70;72.80;;;;;;5032452;28;20140;-77
2020/12/25 09:37:21;;;;;;;2.50;0.75;;;3.80;72.80;;;;;;5024258;28;20042;-78
2020/12/25 09:39:47;;;;;;;2.67;0.73;;;3.90;72.90;;;;;;5019573;28;20423;-78
2020/12/25 09:42:13;;;;;;;1.23;0.80;;;4.00;73.00;;;;;;5017681;28;20045;-79
2020/12/25 09:44:38;;;;;;;1.45;0.90;;;4.00;73.00;;;;;;5020911;28;20037;-77
2020/12/25 09:47:04;;;;;;;1.63;1.10;;;4.20;73.10;;;;;;5051579;23;20452;-73
2020/12/25 09:49:30;;;;;;;1.45;1.10;;;4.20;73.10;;;;;;5023012;28;20033;-75
2020/12/25 09:52:02;;;;;;;0.98;0.75;;;4.30;73.10;;;;;;5024530;28;20037;-77
2020/12/25 09:54:27;;;;;;;2.28;1.20;;;4.40;73.10;;;;;;5023375;28;20034;-74
2020/12/25 09:56:53;;;;;;;2.90;0.80;;;4.50;73.00;;;;;;5027081;28;20055;-77
2020/12/25 09:59:21;;;;;;;2.83;1.38;;;4.60;73.00;;;;;;5041262;28;20063;-73
2020/12/25 10:01:46;;;;;;;1.05;0.70;;;4.60;72.90;;;;;;5036926;28;20063;-74
2020/12/25 10:04:12;;;;;;;1.85;0.90;;;4.70;72.90;;;;;;5039781;28;20049;-77
2020/12/25 10:06:37;;;;;;;1.05;0.50;;;4.70;72.90;;;;;;5044659;28;20033;-77
2020/12/25 10:09:03;;;;;;;0.95;0.50;;;4.80;72.90;;;;;;5042510;28;20036;-76
2020/12/25 10:11:28;;;;;;;1.30;0.45;;;4.90;73.00;;;;;;5048139;28;20442;-75
2020/12/25 10:13:53;;;;;;;2.30;1.13;;;5.00;73.00;;;;;;5046706;28;20037;-76
2020/12/25 10:16:20;;;;;;;1.17;0.60;;;5.10;73.00;;;;;;5045373;28;20440;-75
2020/12/25 10:18:46;;;;;;;1.42;0.85;;;5.10;73.00;;;;;;5042638;28;20100;-78
2020/12/25 10:21:16;;;;;;;1.10;0.57;;;5.10;73.00;;;;;;5042557;28;20033;-75
2020/12/25 10:23:41;;;;;;;1.40;0.63;;;5.20;73.10;;;;;;5050791;28;20029;-77
2020/12/25 10:26:09;;;;;;;0.82;0.52;;;5.30;73.10;;;;;;5050884;28;20044;-76
2020/12/25 10:28:35;;;;;;;0.57;0.40;;;5.30;73.10;;;;;;5045560;28;20403;-77
2020/12/25 10:31:00;;;;;;;1.25;0.63;;;5.40;73.20;;;;;;5046016;28;20033;-79
2020/12/25 10:33:25;;;;;;;0.68;0.47;;;5.40;73.20;;;;;;5044728;28;20021;-76
2020/12/25 10:35:51;;;;;;;1.60;0.60;;;5.40;73.20;;;;;;5026012;28;20037;-76
2020/12/25 10:38:16;;;;;;;0.90;0.43;;;5.50;73.20;;;;;;5044510;28;20511;-76
2020/12/25 10:40:42;;;;;;;1.15;0.50;;;5.60;73.30;;;;;;5042651;28;20032;-77
2020/12/25 10:43:07;;;;;;;0.90;0.60;;;5.70;73.30;;;;;;5042922;28;20037;-76
2020/12/25 10:45:33;;;;;;;0.82;0.50;;;5.70;73.30;;;;;;5047088;28;20099;-76
2020/12/25 10:47:58;;;;;;;0.70;0.60;;;5.80;73.30;;;;;;5043308;28;20042;-75
2020/12/25 10:50:24;;;;;;;3.95;0.93;;;5.80;73.30;;;;;;5047057;28;20107;-76
2020/12/25 10:52:49;;;;;;;1.70;0.63;;;5.80;73.30;;;;;;5035709;28;20389;-78
2020/12/25 10:55:15;;;;;;;1.45;0.70;;;6.00;73.40;;;;;;5037055;28;20037;-77
2020/12/25 10:57:40;;;;;;;0.80;0.45;;;6.00;73.30;;;;;;5048538;28;20037;-77
2020/12/25 11:00:06;;;;;;;1.77;0.60;;;6.10;73.30;;;;;;5048827;28;20065;-77
2020/12/25 11:02:31;;;;;;;1.17;0.40;;;6.10;73.30;;;;;;5049531;28;20017;-77
2020/12/25 11:04:57;;;;;;;2.08;0.88;;;6.20;73.30;;;;;;5044358;28;20034;-77
2020/12/25 11:07:22;;;;;;;2.70;0.75;;;6.20;73.30;;;;;;5052228;28;20022;-77
2020/12/25 11:09:48;;;;;;;2.10;0.70;;;6.30;73.40;;;;;;5059199;28;20106;-78
2020/12/25 11:12:13;;;;;;;1.35;0.60;;;6.40;73.40;;;;;;5056235;28;20036;-78
2020/12/25 11:14:39;;;;;;;0.80;0.40;;;6.40;73.30;;;;;;5050190;28;20039;-77
2020/12/25 11:17:05;;;;;;;0.90;0.60;;;6.50;73.40;;;;;;5057626;28;20067;-76
2020/12/25 11:19:30;;;;;;;1.70;0.50;;;6.60;73.40;;;;;;5045898;28;20049;-76
2020/12/25 11:21:56;;;;;;;0.60;0.47;;;6.60;73.30;;;;;;5044161;28;20044;-78
2020/12/25 11:24:21;;;;;;;0.88;0.60;;;6.70;73.30;;;;;;5043587;28;20129;-78
2020/12/25 11:26:47;;;;;;;1.17;0.40;;;6.70;73.20;;;;;;5040791;28;20046;-77
2020/12/25 11:29:12;;;;;;;1.33;0.70;;;6.80;73.30;;;;;;5046152;28;20029;-78
2020/12/25 11:31:38;;;;;;;1.20;0.50;;;6.80;73.20;;;;;;5042674;28;20579;-77
2020/12/25 11:34:04;;;;;;;0.90;0.65;;;6.80;73.10;;;;;;5042416;28;20033;-77
2020/12/25 11:36:34;;;;;;;0.93;0.43;;;7.00;73.10;;;;;;5049193;28;20040;-76
2020/12/25 11:39:04;;;;;;;1.30;0.40;;;7.00;72.90;;;;;;5057519;28;20399;-77
2020/12/25 11:41:30;;;;;;;0.93;0.40;;;7.00;72.90;;;;;;5043378;28;20029;-77
2020/12/25 11:43:55;;;;;;;0.95;0.30;;;7.10;73.00;;;;;;5040857;28;20037;-80
2020/12/25 11:46:23;;;;;;;0.65;0.45;;;7.00;72.90;;;;;;5040112;28;20040;-77
2020/12/25 11:48:49;;;;;;;0.98;0.43;;;7.10;72.90;;;;;;5040137;28;20183;-76
2020/12/25 11:51:20;;;;;;;0.20;0.20;;;7.10;72.80;;;;;;5046013;28;20037;-76
2020/12/25 11:53:46;;;;;;;;;;;7.20;72.80;;;;;;5040605;28;20048;-78
2020/12/25 11:56:19;;;;;;;0.45;0.22;;;7.20;72.60;;;;;;5043859;28;19913;-79
2020/12/25 11:58:44;;;;;;;0.85;0.22;;;7.30;72.60;;;;;;5040231;28;20142;-77
2020/12/25 12:01:10;;;;;;;2.05;0.40;;;7.30;72.70;;;;;;5043608;28;20033;-77
2020/12/25 12:03:35;;;;;;;0.98;0.30;;;7.30;72.70;;;;;;5046109;28;20033;-77
2020/12/25 12:06:01;;;;;;;1.02;0.43;;;7.40;72.80;;;;;;5050066;28;20032;-78
2020/12/25 12:08:27;;;;;;;0.55;0.30;;;7.40;72.70;;;;;;5055264;28;20060;-77
2020/12/25 12:10:52;;;;;;;0.25;0.20;;;7.40;72.70;;;;;;5051644;28;20514;-75
2020/12/25 12:13:18;;;;;;;2.83;0.80;;;7.40;72.70;;;;;;5050699;28;20029;-77
2020/12/25 12:15:44;;;;;;;2.67;0.40;;;7.50;72.70;;;;;;5044465;28;20041;-77
2020/12/25 12:18:09;;;;;;;0.32;0.30;;;7.50;72.70;;;;;;5040515;28;20029;-80
2020/12/25 12:20:36;;;;;;;2.15;0.60;;;7.50;72.70;;;;;;5040305;28;20189;-76
2020/12/25 12:23:02;;;;;;;1.08;0.30;;;7.60;72.80;;;;;;5032498;28;20037;-78
2020/12/25 12:25:28;;;;;;;1.23;0.40;;;7.60;72.80;;;;;;5050178;28;20037;-79
2020/12/25 12:27:53;;;;;;;0.40;0.30;;;7.60;72.80;;;;;;5042619;28;20032;-77
2020/12/25 12:30:19;;;;;;;0.50;0.30;;;7.70;72.90;;;;;;5043066;28;20112;-77
2020/12/25 12:32:45;;;;;;;2.78;0.95;;;7.70;72.80;;;;;;5042712;28;20072;-78
2020/12/25 12:35:10;;;;;;;0.63;0.30;;;7.70;72.80;;;;;;5042362;28;20032;-80
2020/12/25 12:37:36;;;;;;;0.70;0.30;;;7.80;72.80;;;;;;5045516;28;20044;-77
2020/12/25 12:40:03;;;;;;;0.68;0.35;;;7.90;72.70;;;;;;5043050;28;20029;-76
2020/12/25 12:42:31;;;;;;;0.30;0.30;;;7.90;72.60;;;;;;5043842;28;20512;-78
2020/12/25 12:44:56;;;;;;;0.73;0.32;;;8.00;72.60;;;;;;5046120;28;20036;-77
2020/12/25 12:47:21;;;;;;;1.77;0.50;;;8.00;72.60;;;;;;5048519;28;20025;-77
2020/12/25 12:49:47;;;;;;;0.40;0.30;;;8.10;72.50;;;;;;5043058;28;20108;-78
2020/12/25 12:52:12;;;;;;;0.82;0.50;;;8.00;72.40;;;;;;5048477;28;20607;-77
2020/12/25 12:54:38;;;;;;;2.08;0.40;;;8.10;72.40;;;;;;5043399;28;20028;-77